sensor_id;sensor_type;location;lat;lon;timestamp;P1;durP1;ratioP1;P2;durP2;ratioP2
20042;SDS011;10182;52.896;6.496;2023-02-05T00:00:08;13.00;;;10.50;;
20042;SDS011;10182;52.896;6.496;2023-02-05T00:05:10;12.80;;;10.47;;
20042;SDS011;10182;52.896;6.496;2023-02-05T00:10:13;14.53;;;10.33;;
20042;SDS011;10182;52.896;6.496;2023-02-05T00:15:17;16.83;;;10.57;;
20042;SDS011;10182;52.896;6.496;2023-02-05T00:20:19;16.03;;;10.60;;
20042;SDS011;10182;52.896;6.496;2023-02-05T00:25:22;19.93;;;11.30;;
20042;SDS011;10182;52.896;6.496;2023-02-05T00:30:24;17.67;;;12.23;;
20042;SDS011;10182;52.896;6.496;2023-02-05T00:35:25;16.23;;;11.60;;
20042;SDS011;10182;52.896;6.496;2023-02-05T00:40:28;19.00;;;13.03;;
20042;SDS011;10182;52.896;6.496;2023-02-05T00:45:30;16.27;;;11.07;;
20042;SDS011;10182;52.896;6.496;2023-02-05T00:50:34;21.07;;;12.63;;
20042;SDS011;10182;52.896;6.496;2023-02-05T00:55:37;18.93;;;12.23;;
20042;SDS011;10182;52.896;6.496;2023-02-05T01:00:39;21.30;;;12.83;;
20042;SDS011;10182;52.896;6.496;2023-02-05T01:05:41;18.63;;;12.10;;
20042;SDS011;10182;52.896;6.496;2023-02-05T01:10:45;20.73;;;11.97;;
20042;SDS011;10182;52.896;6.496;2023-02-05T01:15:50;21.03;;;12.50;;
20042;SDS011;10182;52.896;6.496;2023-02-05T01:20:51;26.83;;;13.67;;
20042;SDS011;10182;52.896;6.496;2023-02-05T01:25:55;20.93;;;13.07;;
20042;SDS011;10182;52.896;6.496;2023-02-05T01:30:56;24.23;;;13.27;;
20042;SDS011;10182;52.896;6.496;2023-02-05T01:35:58;26.30;;;13.73;;
20042;SDS011;10182;52.896;6.496;2023-02-05T01:41:01;24.07;;;12.63;;
20042;SDS011;10182;52.896;6.496;2023-02-05T01:46:20;25.97;;;13.67;;
20042;SDS011;10182;52.896;6.496;2023-02-05T01:51:26;32.60;;;15.93;;
20042;SDS011;10182;52.896;6.496;2023-02-05T01:56:32;29.20;;;14.73;;
20042;SDS011;10182;52.896;6.496;2023-02-05T02:01:37;22.27;;;14.20;;
20042;SDS011;10182;52.896;6.496;2023-02-05T02:06:40;29.50;;;16.00;;
20042;SDS011;10182;52.896;6.496;2023-02-05T02:11:43;26.43;;;15.67;;
20042;SDS011;10182;52.896;6.496;2023-02-05T02:16:45;23.30;;;15.37;;
20042;SDS011;10182;52.896;6.496;2023-02-05T02:21:55;32.03;;;17.13;;
20042;SDS011;10182;52.896;6.496;2023-02-05T02:32:36;42.90;;;18.37;;
20042;SDS011;10182;52.896;6.496;2023-02-05T02:37:42;36.83;;;18.17;;
20042;SDS011;10182;52.896;6.496;2023-02-05T02:42:53;31.17;;;18.30;;
20042;SDS011;10182;52.896;6.496;2023-02-05T02:48:02;30.80;;;17.40;;
20042;SDS011;10182;52.896;6.496;2023-02-05T02:53:08;37.37;;;20.10;;
20042;SDS011;10182;52.896;6.496;2023-02-05T02:58:14;42.37;;;19.83;;
20042;SDS011;10182;52.896;6.496;2023-02-05T03:03:18;45.97;;;22.20;;
20042;SDS011;10182;52.896;6.496;2023-02-05T03:08:24;42.07;;;22.10;;
20042;SDS011;10182;52.896;6.496;2023-02-05T03:13:32;47.20;;;23.80;;
20042;SDS011;10182;52.896;6.496;2023-02-05T03:18:35;64.03;;;27.10;;
20042;SDS011;10182;52.896;6.496;2023-02-05T03:23:37;56.70;;;27.10;;
20042;SDS011;10182;52.896;6.496;2023-02-05T03:28:40;63.93;;;28.93;;
20042;SDS011;10182;52.896;6.496;2023-02-05T03:33:45;65.03;;;27.67;;
20042;SDS011;10182;52.896;6.496;2023-02-05T03:39:02;59.57;;;27.53;;
20042;SDS011;10182;52.896;6.496;2023-02-05T03:44:17;62.87;;;29.17;;
20042;SDS011;10182;52.896;6.496;2023-02-05T03:49:29;65.03;;;28.87;;
20042;SDS011;10182;52.896;6.496;2023-02-05T03:54:43;64.63;;;30.90;;
20042;SDS011;10182;52.896;6.496;2023-02-05T03:59:53;76.53;;;32.67;;
20042;SDS011;10182;52.896;6.496;2023-02-05T04:04:57;76.70;;;30.83;;
20042;SDS011;10182;52.896;6.496;2023-02-05T04:09:59;75.17;;;32.30;;
20042;SDS011;10182;52.896;6.496;2023-02-05T04:15:02;61.03;;;30.13;;
20042;SDS011;10182;52.896;6.496;2023-02-05T04:20:05;69.23;;;32.63;;
20042;SDS011;10182;52.896;6.496;2023-02-05T04:25:07;68.53;;;32.37;;
20042;SDS011;10182;52.896;6.496;2023-02-05T04:35:14;73.03;;;31.60;;
20042;SDS011;10182;52.896;6.496;2023-02-05T04:40:16;77.87;;;34.20;;
20042;SDS011;10182;52.896;6.496;2023-02-05T04:45:19;67.20;;;34.10;;
20042;SDS011;10182;52.896;6.496;2023-02-05T04:50:21;70.60;;;32.13;;
20042;SDS011;10182;52.896;6.496;2023-02-05T04:55:23;64.40;;;30.37;;
20042;SDS011;10182;52.896;6.496;2023-02-05T05:00:26;66.30;;;31.30;;
20042;SDS011;10182;52.896;6.496;2023-02-05T05:05:28;61.20;;;28.10;;
20042;SDS011;10182;52.896;6.496;2023-02-05T05:10:30;64.57;;;28.30;;
20042;SDS011;10182;52.896;6.496;2023-02-05T05:15:33;58.80;;;27.17;;
20042;SDS011;10182;52.896;6.496;2023-02-05T05:20:35;50.03;;;24.87;;
20042;SDS011;10182;52.896;6.496;2023-02-05T05:25:39;50.57;;;24.67;;
20042;SDS011;10182;52.896;6.496;2023-02-05T05:30:44;46.43;;;23.60;;
20042;SDS011;10182;52.896;6.496;2023-02-05T05:35:46;41.43;;;23.57;;
20042;SDS011;10182;52.896;6.496;2023-02-05T05:40:48;39.27;;;20.90;;
20042;SDS011;10182;52.896;6.496;2023-02-05T05:46:08;40.33;;;20.93;;
20042;SDS011;10182;52.896;6.496;2023-02-05T05:51:10;16.03;;;8.77;;
20042;SDS011;10182;52.896;6.496;2023-02-05T05:56:12;9.03;;;3.80;;
20042;SDS011;10182;52.896;6.496;2023-02-05T06:01:16;11.17;;;2.67;;
20042;SDS011;10182;52.896;6.496;2023-02-05T06:06:21;10.40;;;2.97;;
20042;SDS011;10182;52.896;6.496;2023-02-05T06:11:23;8.23;;;1.70;;
20042;SDS011;10182;52.896;6.496;2023-02-05T06:16:26;11.00;;;2.33;;
20042;SDS011;10182;52.896;6.496;2023-02-05T06:21:28;11.20;;;2.07;;
20042;SDS011;10182;52.896;6.496;2023-02-05T06:26:30;11.77;;;2.10;;
20042;SDS011;10182;52.896;6.496;2023-02-05T06:31:33;7.70;;;1.50;;
20042;SDS011;10182;52.896;6.496;2023-02-05T06:36:34;12.20;;;1.80;;
20042;SDS011;10182;52.896;6.496;2023-02-05T06:41:36;10.50;;;1.70;;
20042;SDS011;10182;52.896;6.496;2023-02-05T06:46:39;8.77;;;2.13;;
20042;SDS011;10182;52.896;6.496;2023-02-05T06:51:41;8.07;;;3.17;;
20042;SDS011;10182;52.896;6.496;2023-02-05T06:56:43;14.13;;;2.60;;
20042;SDS011;10182;52.896;6.496;2023-02-05T07:01:46;9.27;;;2.63;;
20042;SDS011;10182;52.896;6.496;2023-02-05T07:06:47;14.90;;;2.23;;
20042;SDS011;10182;52.896;6.496;2023-02-05T07:11:49;14.10;;;2.33;;
20042;SDS011;10182;52.896;6.496;2023-02-05T07:16:52;16.87;;;2.90;;
20042;SDS011;10182;52.896;6.496;2023-02-05T07:21:54;10.97;;;3.17;;
20042;SDS011;10182;52.896;6.496;2023-02-05T07:26:56;8.77;;;1.77;;
20042;SDS011;10182;52.896;6.496;2023-02-05T07:31:59;5.53;;;2.10;;
20042;SDS011;10182;52.896;6.496;2023-02-05T07:37:00;7.83;;;1.40;;
20042;SDS011;10182;52.896;6.496;2023-02-05T07:42:02;11.23;;;2.80;;
20042;SDS011;10182;52.896;6.496;2023-02-05T07:47:05;15.07;;;2.67;;
20042;SDS011;10182;52.896;6.496;2023-02-05T07:52:07;9.50;;;2.30;;
20042;SDS011;10182;52.896;6.496;2023-02-05T07:57:09;8.50;;;2.63;;
20042;SDS011;10182;52.896;6.496;2023-02-05T08:02:14;13.57;;;2.07;;
20042;SDS011;10182;52.896;6.496;2023-02-05T08:07:16;7.33;;;2.73;;
20042;SDS011;10182;52.896;6.496;2023-02-05T08:12:18;19.70;;;3.37;;
20042;SDS011;10182;52.896;6.496;2023-02-05T08:17:21;18.63;;;3.63;;
20042;SDS011;10182;52.896;6.496;2023-02-05T08:22:23;14.53;;;3.23;;
20042;SDS011;10182;52.896;6.496;2023-02-05T08:27:24;19.63;;;3.40;;
20042;SDS011;10182;52.896;6.496;2023-02-05T08:32:28;17.03;;;3.13;;
20042;SDS011;10182;52.896;6.496;2023-02-05T08:37:29;18.73;;;4.13;;
20042;SDS011;10182;52.896;6.496;2023-02-05T08:42:31;14.97;;;3.13;;
20042;SDS011;10182;52.896;6.496;2023-02-05T08:47:35;15.13;;;3.23;;
20042;SDS011;10182;52.896;6.496;2023-02-05T08:52:40;16.93;;;3.63;;
20042;SDS011;10182;52.896;6.496;2023-02-05T08:57:42;13.33;;;2.97;;
20042;SDS011;10182;52.896;6.496;2023-02-05T09:02:45;13.50;;;3.40;;
20042;SDS011;10182;52.896;6.496;2023-02-05T09:07:47;19.87;;;3.47;;
20042;SDS011;10182;52.896;6.496;2023-02-05T09:12:49;23.53;;;4.47;;
20042;SDS011;10182;52.896;6.496;2023-02-05T09:17:52;19.20;;;3.90;;
20042;SDS011;10182;52.896;6.496;2023-02-05T09:22:54;20.97;;;4.27;;
20042;SDS011;10182;52.896;6.496;2023-02-05T09:27:55;16.50;;;3.87;;
20042;SDS011;10182;52.896;6.496;2023-02-05T09:32:58;22.80;;;4.73;;
20042;SDS011;10182;52.896;6.496;2023-02-05T09:38:00;23.53;;;3.90;;
20042;SDS011;10182;52.896;6.496;2023-02-05T09:43:09;23.80;;;4.60;;
20042;SDS011;10182;52.896;6.496;2023-02-05T09:48:37;24.30;;;4.23;;
20042;SDS011;10182;52.896;6.496;2023-02-05T09:53:50;26.77;;;4.50;;
20042;SDS011;10182;52.896;6.496;2023-02-05T09:58:56;20.73;;;4.07;;
20042;SDS011;10182;52.896;6.496;2023-02-05T10:04:00;18.83;;;3.67;;
20042;SDS011;10182;52.896;6.496;2023-02-05T10:09:07;21.93;;;3.87;;
20042;SDS011;10182;52.896;6.496;2023-02-05T10:14:21;22.27;;;3.30;;
20042;SDS011;10182;52.896;6.496;2023-02-05T10:30:43;25.77;;;4.90;;
20042;SDS011;10182;52.896;6.496;2023-02-05T10:35:58;19.63;;;4.23;;
20042;SDS011;10182;52.896;6.496;2023-02-05T10:41:03;22.03;;;5.27;;
20042;SDS011;10182;52.896;6.496;2023-02-05T10:46:14;31.53;;;5.50;;
20042;SDS011;10182;52.896;6.496;2023-02-05T10:51:20;26.37;;;5.80;;
20042;SDS011;10182;52.896;6.496;2023-02-05T10:56:29;14.23;;;2.90;;
20042;SDS011;10182;52.896;6.496;2023-02-05T11:01:32;13.97;;;3.20;;
20042;SDS011;10182;52.896;6.496;2023-02-05T11:06:38;12.77;;;2.83;;
20042;SDS011;10182;52.896;6.496;2023-02-05T11:11:42;16.80;;;3.20;;
20042;SDS011;10182;52.896;6.496;2023-02-05T11:16:44;16.93;;;3.67;;
20042;SDS011;10182;52.896;6.496;2023-02-05T11:21:49;12.07;;;3.93;;
20042;SDS011;10182;52.896;6.496;2023-02-05T11:32:30;18.57;;;4.67;;
20042;SDS011;10182;52.896;6.496;2023-02-05T11:37:38;23.53;;;5.03;;
20042;SDS011;10182;52.896;6.496;2023-02-05T11:42:40;19.40;;;5.33;;
20042;SDS011;10182;52.896;6.496;2023-02-05T11:47:48;24.10;;;5.40;;
20042;SDS011;10182;52.896;6.496;2023-02-05T11:52:52;18.70;;;4.50;;
20042;SDS011;10182;52.896;6.496;2023-02-05T11:57:59;18.70;;;5.57;;
20042;SDS011;10182;52.896;6.496;2023-02-05T12:03:03;18.07;;;4.77;;
20042;SDS011;10182;52.896;6.496;2023-02-05T12:08:09;28.97;;;5.33;;
20042;SDS011;10182;52.896;6.496;2023-02-05T12:13:19;23.97;;;5.40;;
20042;SDS011;10182;52.896;6.496;2023-02-05T12:18:46;24.40;;;5.27;;
20042;SDS011;10182;52.896;6.496;2023-02-05T12:24:09;22.40;;;5.37;;
20042;SDS011;10182;52.896;6.496;2023-02-05T12:29:27;20.20;;;4.83;;
20042;SDS011;10182;52.896;6.496;2023-02-05T12:34:51;24.80;;;5.40;;
20042;SDS011;10182;52.896;6.496;2023-02-05T12:40:05;25.60;;;5.87;;
20042;SDS011;10182;52.896;6.496;2023-02-05T12:45:22;26.73;;;5.70;;
20042;SDS011;10182;52.896;6.496;2023-02-05T12:50:39;25.53;;;5.73;;
20042;SDS011;10182;52.896;6.496;2023-02-05T12:56:00;32.73;;;6.37;;
20042;SDS011;10182;52.896;6.496;2023-02-05T13:01:18;25.97;;;5.67;;
20042;SDS011;10182;52.896;6.496;2023-02-05T13:06:25;25.63;;;5.50;;
20042;SDS011;10182;52.896;6.496;2023-02-05T13:11:33;23.63;;;5.63;;
20042;SDS011;10182;52.896;6.496;2023-02-05T13:16:40;30.07;;;6.30;;
20042;SDS011;10182;52.896;6.496;2023-02-05T13:21:45;24.03;;;5.10;;
20042;SDS011;10182;52.896;6.496;2023-02-05T13:27:12;21.33;;;5.47;;
20042;SDS011;10182;52.896;6.496;2023-02-05T13:32:36;17.50;;;5.23;;
20042;SDS011;10182;52.896;6.496;2023-02-05T13:37:47;24.60;;;5.37;;
20042;SDS011;10182;52.896;6.496;2023-02-05T13:43:07;29.13;;;6.10;;
20042;SDS011;10182;52.896;6.496;2023-02-05T13:54:21;25.00;;;4.77;;
20042;SDS011;10182;52.896;6.496;2023-02-05T13:59:46;21.57;;;5.00;;
20042;SDS011;10182;52.896;6.496;2023-02-05T14:04:52;19.50;;;4.27;;
20042;SDS011;10182;52.896;6.496;2023-02-05T14:09:54;26.53;;;5.20;;
20042;SDS011;10182;52.896;6.496;2023-02-05T14:20:37;18.90;;;4.83;;
20042;SDS011;10182;52.896;6.496;2023-02-05T14:31:10;27.57;;;5.50;;
20042;SDS011;10182;52.896;6.496;2023-02-05T14:36:57;28.07;;;5.83;;
20042;SDS011;10182;52.896;6.496;2023-02-05T14:42:00;23.23;;;6.40;;
20042;SDS011;10182;52.896;6.496;2023-02-05T14:47:05;25.03;;;6.30;;
20042;SDS011;10182;52.896;6.496;2023-02-05T14:52:22;24.73;;;5.93;;
20042;SDS011;10182;52.896;6.496;2023-02-05T14:57:38;36.67;;;7.53;;
20042;SDS011;10182;52.896;6.496;2023-02-05T15:08:24;27.50;;;6.20;;
20042;SDS011;10182;52.896;6.496;2023-02-05T15:13:37;37.13;;;6.53;;
20042;SDS011;10182;52.896;6.496;2023-02-05T15:18:39;27.87;;;6.07;;
20042;SDS011;10182;52.896;6.496;2023-02-05T15:23:44;33.83;;;6.73;;
20042;SDS011;10182;52.896;6.496;2023-02-05T15:28:58;26.67;;;6.67;;
20042;SDS011;10182;52.896;6.496;2023-02-05T15:34:06;26.53;;;6.70;;
20042;SDS011;10182;52.896;6.496;2023-02-05T15:39:41;26.73;;;6.27;;
20042;SDS011;10182;52.896;6.496;2023-02-05T15:44:47;32.13;;;6.80;;
20042;SDS011;10182;52.896;6.496;2023-02-05T15:49:50;32.63;;;7.23;;
20042;SDS011;10182;52.896;6.496;2023-02-05T15:54:58;35.70;;;7.23;;
20042;SDS011;10182;52.896;6.496;2023-02-05T16:00:04;31.00;;;7.20;;
20042;SDS011;10182;52.896;6.496;2023-02-05T16:05:19;32.53;;;6.63;;
20042;SDS011;10182;52.896;6.496;2023-02-05T16:10:24;37.97;;;6.70;;
20042;SDS011;10182;52.896;6.496;2023-02-05T16:15:28;31.33;;;8.00;;
20042;SDS011;10182;52.896;6.496;2023-02-05T16:20:34;26.07;;;5.90;;
20042;SDS011;10182;52.896;6.496;2023-02-05T16:25:42;36.57;;;8.03;;
20042;SDS011;10182;52.896;6.496;2023-02-05T16:30:52;36.53;;;7.60;;
20042;SDS011;10182;52.896;6.496;2023-02-05T16:35:57;33.67;;;6.37;;
20042;SDS011;10182;52.896;6.496;2023-02-05T16:41:09;37.87;;;7.70;;
20042;SDS011;10182;52.896;6.496;2023-02-05T16:46:23;35.83;;;5.87;;
20042;SDS011;10182;52.896;6.496;2023-02-05T16:51:29;32.00;;;6.83;;
20042;SDS011;10182;52.896;6.496;2023-02-05T16:56:48;34.70;;;7.03;;
20042;SDS011;10182;52.896;6.496;2023-02-05T17:01:54;23.70;;;5.60;;
20042;SDS011;10182;52.896;6.496;2023-02-05T17:06:59;23.07;;;5.80;;
20042;SDS011;10182;52.896;6.496;2023-02-05T17:17:47;18.47;;;5.37;;
20042;SDS011;10182;52.896;6.496;2023-02-05T17:23:10;27.17;;;5.63;;
20042;SDS011;10182;52.896;6.496;2023-02-05T17:28:15;24.90;;;5.77;;
20042;SDS011;10182;52.896;6.496;2023-02-05T17:33:19;26.60;;;5.83;;
20042;SDS011;10182;52.896;6.496;2023-02-05T17:38:23;34.13;;;7.37;;
20042;SDS011;10182;52.896;6.496;2023-02-05T17:43:26;25.83;;;5.70;;
20042;SDS011;10182;52.896;6.496;2023-02-05T17:48:28;29.10;;;6.07;;
20042;SDS011;10182;52.896;6.496;2023-02-05T17:53:29;29.20;;;6.57;;
20042;SDS011;10182;52.896;6.496;2023-02-05T17:58:32;24.07;;;5.83;;
20042;SDS011;10182;52.896;6.496;2023-02-05T18:03:34;37.97;;;7.77;;
20042;SDS011;10182;52.896;6.496;2023-02-05T18:08:36;31.33;;;6.77;;
20042;SDS011;10182;52.896;6.496;2023-02-05T18:13:39;40.17;;;7.70;;
20042;SDS011;10182;52.896;6.496;2023-02-05T18:18:41;24.27;;;5.43;;
20042;SDS011;10182;52.896;6.496;2023-02-05T18:23:42;24.23;;;6.27;;
20042;SDS011;10182;52.896;6.496;2023-02-05T18:28:46;32.53;;;6.27;;
20042;SDS011;10182;52.896;6.496;2023-02-05T18:33:47;31.03;;;6.80;;
20042;SDS011;10182;52.896;6.496;2023-02-05T18:38:50;21.17;;;5.83;;
20042;SDS011;10182;52.896;6.496;2023-02-05T18:43:53;27.93;;;6.40;;
20042;SDS011;10182;52.896;6.496;2023-02-05T18:48:56;28.67;;;6.17;;
20042;SDS011;10182;52.896;6.496;2023-02-05T18:53:57;26.00;;;6.00;;
20042;SDS011;10182;52.896;6.496;2023-02-05T18:59:02;24.57;;;5.53;;
20042;SDS011;10182;52.896;6.496;2023-02-05T19:04:05;27.00;;;6.23;;
20042;SDS011;10182;52.896;6.496;2023-02-05T19:09:09;37.70;;;7.70;;
20042;SDS011;10182;52.896;6.496;2023-02-05T19:14:14;35.87;;;6.70;;
20042;SDS011;10182;52.896;6.496;2023-02-05T19:19:17;38.87;;;6.93;;
20042;SDS011;10182;52.896;6.496;2023-02-05T19:24:20;26.60;;;7.00;;
20042;SDS011;10182;52.896;6.496;2023-02-05T19:29:24;32.63;;;7.50;;
20042;SDS011;10182;52.896;6.496;2023-02-05T19:34:26;28.70;;;5.70;;
20042;SDS011;10182;52.896;6.496;2023-02-05T19:39:28;35.83;;;9.23;;
20042;SDS011;10182;52.896;6.496;2023-02-05T19:44:31;44.03;;;8.20;;
20042;SDS011;10182;52.896;6.496;2023-02-05T19:49:32;31.70;;;7.03;;
20042;SDS011;10182;52.896;6.496;2023-02-05T19:54:34;29.40;;;7.57;;
20042;SDS011;10182;52.896;6.496;2023-02-05T19:59:40;35.53;;;6.47;;
20042;SDS011;10182;52.896;6.496;2023-02-05T20:04:42;38.57;;;6.60;;
20042;SDS011;10182;52.896;6.496;2023-02-05T20:09:44;31.07;;;6.60;;
20042;SDS011;10182;52.896;6.496;2023-02-05T20:14:47;37.53;;;6.60;;
20042;SDS011;10182;52.896;6.496;2023-02-05T20:19:49;40.53;;;7.10;;
20042;SDS011;10182;52.896;6.496;2023-02-05T20:24:53;31.57;;;6.80;;
20042;SDS011;10182;52.896;6.496;2023-02-05T20:29:56;31.97;;;6.63;;
20042;SDS011;10182;52.896;6.496;2023-02-05T20:35:15;31.77;;;6.50;;
20042;SDS011;10182;52.896;6.496;2023-02-05T20:40:17;38.40;;;8.07;;
20042;SDS011;10182;52.896;6.496;2023-02-05T20:45:20;37.57;;;7.23;;
20042;SDS011;10182;52.896;6.496;2023-02-05T20:50:22;40.83;;;8.30;;
20042;SDS011;10182;52.896;6.496;2023-02-05T20:55:24;51.30;;;8.43;;
20042;SDS011;10182;52.896;6.496;2023-02-05T21:00:27;35.50;;;7.13;;
20042;SDS011;10182;52.896;6.496;2023-02-05T21:05:29;33.77;;;8.53;;
20042;SDS011;10182;52.896;6.496;2023-02-05T21:10:31;34.60;;;8.03;;
20042;SDS011;10182;52.896;6.496;2023-02-05T21:15:34;40.43;;;7.40;;
20042;SDS011;10182;52.896;6.496;2023-02-05T21:20:36;32.77;;;7.30;;
20042;SDS011;10182;52.896;6.496;2023-02-05T21:25:38;32.60;;;8.23;;
20042;SDS011;10182;52.896;6.496;2023-02-05T21:30:41;23.17;;;5.50;;
20042;SDS011;10182;52.896;6.496;2023-02-05T21:35:43;43.40;;;8.17;;
20042;SDS011;10182;52.896;6.496;2023-02-05T21:40:47;33.73;;;7.53;;
20042;SDS011;10182;52.896;6.496;2023-02-05T21:45:51;34.73;;;6.93;;
20042;SDS011;10182;52.896;6.496;2023-02-05T21:50:53;25.67;;;6.03;;
20042;SDS011;10182;52.896;6.496;2023-02-05T21:55:58;37.33;;;7.70;;
20042;SDS011;10182;52.896;6.496;2023-02-05T22:01:12;44.63;;;13.50;;
20042;SDS011;10182;52.896;6.496;2023-02-05T22:06:15;55.23;;;10.50;;
20042;SDS011;10182;52.896;6.496;2023-02-05T22:11:17;40.90;;;7.33;;
20042;SDS011;10182;52.896;6.496;2023-02-05T22:16:22;36.40;;;6.40;;
20042;SDS011;10182;52.896;6.496;2023-02-05T22:21:26;39.97;;;6.70;;
20042;SDS011;10182;52.896;6.496;2023-02-05T22:26:29;32.67;;;7.53;;
20042;SDS011;10182;52.896;6.496;2023-02-05T22:31:34;34.30;;;7.33;;
20042;SDS011;10182;52.896;6.496;2023-02-05T22:36:36;34.97;;;7.00;;
20042;SDS011;10182;52.896;6.496;2023-02-05T22:41:38;42.93;;;7.30;;
20042;SDS011;10182;52.896;6.496;2023-02-05T22:46:43;21.53;;;5.73;;
20042;SDS011;10182;52.896;6.496;2023-02-05T22:51:45;29.13;;;7.03;;
20042;SDS011;10182;52.896;6.496;2023-02-05T22:56:53;30.30;;;5.20;;
20042;SDS011;10182;52.896;6.496;2023-02-05T23:01:57;28.37;;;5.83;;
20042;SDS011;10182;52.896;6.496;2023-02-05T23:06:58;26.27;;;5.87;;
20042;SDS011;10182;52.896;6.496;2023-02-05T23:12:00;29.37;;;5.70;;
20042;SDS011;10182;52.896;6.496;2023-02-05T23:17:03;29.13;;;5.93;;
20042;SDS011;10182;52.896;6.496;2023-02-05T23:22:05;30.13;;;6.90;;
20042;SDS011;10182;52.896;6.496;2023-02-05T23:27:08;34.73;;;8.37;;
20042;SDS011;10182;52.896;6.496;2023-02-05T23:32:11;34.97;;;8.33;;
20042;SDS011;10182;52.896;6.496;2023-02-05T23:37:14;30.03;;;7.20;;
20042;SDS011;10182;52.896;6.496;2023-02-05T23:42:15;37.93;;;7.80;;
20042;SDS011;10182;52.896;6.496;2023-02-05T23:47:18;34.97;;;8.27;;
20042;SDS011;10182;52.896;6.496;2023-02-05T23:52:20;30.43;;;7.23;;
20042;SDS011;10182;52.896;6.496;2023-02-05T23:57:22;28.97;;;5.80;;
